罗盘
风向 的
风: 2 kt, 1 beaufort

添加一条跑道以查看侧风和逆风信息。

添置 跑道
0 1.000 2.000 3.000 4.000 5.000
FEW 4.500 ft
METAR EDLV 171250Z VRB02KT 4400 -RA BR FEW045 21/19 Q1011

METAR Emmerich Airfield - DE-0179

Emmerich Airfield是Emmerich,德国中的小机场。 视场标高为44 ft。 该领域的国际民航组织标志是DE-0179.

这份报告是针对2022年8月17日 14:50, 当地时间在Weeze Airport进行的。

机场观察

可变方向的风很小或没有风。

可见度为4,4 km。

有几云在4.500 ft的高度。 没有观察到天花板。

当前天气为光 雨, 薄雾。 温度和风寒是21 °C。 露点为19 °C,相对湿度为88%。 海平面上的气压为1011 hPa (QNH)。

白天

今天,太阳从06:22升起,在20:55降落。 这适用于Emmerich Airfield,世界夏令时可能有所不同。 当地时间与世界标准时间之间的时差为+2 小时。 夏令时目前正在进行中。

公司介绍

我们没有关于这个机场的公司信息。

体会

到Vliegles.nl去找飞行课程,跳伞和其他飞行体验。 浏览页面,了解Emmerich Airfield附近所有可用的活动。 你也可以使用搜索功能来寻找你所在地附近的特定飞行课程、跳伞或其他飞行体验。

乌云

4.500 ft FEW 几云

温度 & 天气

天气 光 雨
薄雾
温度 21 °C
露点 19 °C
相对湿度 88%
Kp-index 1  

白天

日出
06:24
中午
13:39
日落
20:54 (5h 25m)

小工具

你想在你的网站上有一个关于Emmerich Airfield的当前航空天气(METAR)的小部件吗?

</> 显示HTML代码

我们和第三方通过cookies跟踪您在我们网站上的上网行为。如果您继续,我们认为您同意我们的cookie政策。 了解更多